Time;durP1;ratioP1;P1;durP2;ratioP2;P2;SDS_P1;SDS_P2;PMS_P1;PMS_P2;Temp;Humidity;BMP_temperature;BMP_pressure;BME280_temperature;BME280_humidity;BME280_pressure;Samples;Min_cycle;Max_cycle;Signal;HPM_P1;HPM_P2
2021/12/21 00:00:46;;;;;;;10.13;6.63;;;10.20;79.60;;;;;;5154450;27;20558;-68
2021/12/21 00:03:12;;;;;;;8.70;7.10;;;10.20;79.60;;;;;;5153865;27;20070;-68
2021/12/21 00:05:38;;;;;;;10.73;7.90;;;10.10;79.60;;;;;;5155340;27;20039;-67
2021/12/21 00:08:07;;;;;;;9.07;6.95;;;10.10;79.60;;;;;;5154048;27;20478;-66
2021/12/21 00:10:34;;;;;;;9.07;7.35;;;10.20;79.70;;;;;;5153273;27;20111;-68
2021/12/21 00:13:06;;;;;;;8.95;6.60;;;10.20;79.60;;;;;;5154021;27;20039;-68
2021/12/21 00:15:56;;;;;;;9.30;7.18;;;10.10;79.70;;;;;;5155058;27;20034;-69
2021/12/21 00:26:21;;;;;;;8.15;6.55;;;10.20;79.70;;;;;;5053241;28;20044;-68
2021/12/21 00:28:58;;;;;;;9.43;6.82;;;10.10;79.60;;;;;;5069702;28;20114;-66
2021/12/21 00:31:26;;;;;;;10.93;7.47;;;10.20;79.70;;;;;;5069658;28;20049;-68
2021/12/21 00:33:52;;;;;;;9.90;7.38;;;10.10;79.70;;;;;;5069609;28;20048;-68
2021/12/21 00:36:20;;;;;;;8.60;7.20;;;10.10;79.70;;;;;;5069647;28;20147;-67
2021/12/21 00:38:47;;;;;;;8.65;7.28;;;10.20;79.70;;;;;;5033950;28;20110;-68
2021/12/21 00:41:14;;;;;;;9.23;6.88;;;10.10;79.70;;;;;;5049581;28;20045;-68
2021/12/21 00:43:39;;;;;;;10.57;7.60;;;10.10;79.70;;;;;;5048936;28;20060;-66
2021/12/21 00:46:05;;;;;;;7.55;6.40;;;10.10;79.70;;;;;;5049400;28;20041;-68
2021/12/21 00:48:33;;;;;;;8.73;6.97;;;10.10;79.70;;;;;;5061681;28;20044;-68
2021/12/21 00:51:02;;;;;;;9.15;7.25;;;10.10;79.70;;;;;;5069582;28;20064;-68
2021/12/21 00:53:28;;;;;;;8.90;6.70;;;10.10;79.70;;;;;;5069646;28;20520;-69
2021/12/21 00:55:53;;;;;;;10.43;7.70;;;10.10;79.70;;;;;;5072696;28;20098;-68
2021/12/21 00:58:19;;;;;;;8.02;6.70;;;10.10;79.70;;;;;;5072319;28;20059;-69
2021/12/21 01:00:45;;;;;;;9.30;7.10;;;10.10;79.70;;;;;;5073222;28;20040;-69
2021/12/21 01:03:13;;;;;;;8.52;7.50;;;10.10;79.70;;;;;;5133903;27;20068;-68
2021/12/21 01:08:14;;;;;;;7.93;6.78;;;10.10;79.70;;;;;;5157384;27;20054;-62
2021/12/21 01:13:40;;;;;;;8.18;6.90;;;10.00;79.60;;;;;;5157314;27;20049;-63
2021/12/21 01:27:25;;;;;;;9.70;7.23;;;10.10;79.80;;;;;;5032857;28;20152;-69
2021/12/21 01:35:21;;;;;;;8.75;7.35;;;10.10;79.80;;;;;;5032748;28;20057;-69
2021/12/21 01:37:59;;;;;;;8.57;6.93;;;10.00;79.70;;;;;;5032787;28;20076;-64
2021/12/21 01:40:45;;;;;;;8.05;6.80;;;10.00;79.80;;;;;;5032702;28;20511;-64
2021/12/21 01:51:19;;;;;;;9.30;7.45;;;10.00;79.70;;;;;;5032267;28;20045;-63
2021/12/21 01:53:47;;;;;;;10.20;7.18;;;10.00;79.70;;;;;;5019938;28;20046;-66
2021/12/21 01:56:13;;;;;;;8.52;7.13;;;10.00;79.80;;;;;;5072346;28;20045;-64
2021/12/21 01:58:39;;;;;;;9.27;6.90;;;10.00;79.70;;;;;;5072375;28;20095;-65
2021/12/21 02:01:10;;;;;;;8.52;7.00;;;10.00;79.80;;;;;;5144924;27;20118;-65
2021/12/21 02:03:36;;;;;;;8.60;6.90;;;10.00;79.70;;;;;;5170457;27;20054;-67
2021/12/21 02:06:03;;;;;;;8.52;7.22;;;10.10;79.80;;;;;;5156227;27;20508;-65
2021/12/21 02:08:29;;;;;;;8.57;7.43;;;10.00;79.70;;;;;;5177330;27;20422;-66
2021/12/21 02:10:59;;;;;;;8.00;7.10;;;10.00;79.70;;;;;;5158311;27;20053;-66
2021/12/21 02:13:30;;;;;;;9.02;7.53;;;10.00;80.40;;;;;;5175135;27;20067;-66
2021/12/21 02:15:56;;;;;;;9.00;7.13;;;10.00;79.70;;;;;;5158178;27;20090;-67
2021/12/21 02:18:49;;;;;;;10.45;7.75;;;10.00;79.80;;;;;;5176136;27;20038;-62
2021/12/21 02:21:34;;;;;;;9.05;7.53;;;10.00;79.70;;;;;;5176974;27;20046;-63
2021/12/21 02:24:06;;;;;;;9.23;7.13;;;10.00;79.70;;;;;;5155214;27;20034;-62
2021/12/21 02:31:38;;;;;;;9.82;7.93;;;10.00;79.80;;;;;;5155793;27;20085;-68
2021/12/21 02:34:05;;;;;;;11.38;7.30;;;10.00;79.80;;;;;;5136685;27;20050;-62
2021/12/21 02:36:31;;;;;;;9.68;7.28;;;10.00;79.80;;;;;;5138089;27;20060;-66
2021/12/21 02:38:57;;;;;;;9.38;7.68;;;9.90;79.70;;;;;;5155530;27;20058;-65
2021/12/21 02:41:24;;;;;;;10.70;7.22;;;10.00;79.80;;;;;;5155439;27;20422;-66
2021/12/21 02:43:50;;;;;;;11.80;7.85;;;10.00;79.70;;;;;;5155276;27;20053;-66
2021/12/21 02:46:16;;;;;;;11.10;8.02;;;10.00;79.80;;;;;;5156518;27;20494;-65
2021/12/21 02:48:42;;;;;;;10.75;8.13;;;10.00;79.80;;;;;;5136853;27;20483;-67
2021/12/21 02:51:08;;;;;;;10.65;7.82;;;10.10;79.80;;;;;;5154889;27;20042;-68
2021/12/21 02:53:33;;;;;;;11.38;7.97;;;10.00;79.70;;;;;;5155263;27;20039;-66
2021/12/21 02:55:59;;;;;;;9.27;7.65;;;10.00;79.80;;;;;;5156068;27;20042;-68
2021/12/21 02:58:25;;;;;;;11.15;8.57;;;10.00;79.80;;;;;;5169416;27;20035;-69
2021/12/21 03:00:53;;;;;;;9.43;7.53;;;9.90;79.70;;;;;;5175639;27;20369;-69
2021/12/21 03:03:19;;;;;;;11.30;8.10;;;9.90;79.70;;;;;;5153380;27;20054;-68
2021/12/21 03:05:50;;;;;;;9.10;7.72;;;9.90;79.70;;;;;;5154780;27;20046;-69
2021/12/21 03:08:25;;;;;;;10.45;7.45;;;9.90;79.70;;;;;;5152995;27;20134;-67
2021/12/21 03:11:05;;;;;;;12.20;8.27;;;9.90;79.70;;;;;;5154939;27;20402;-68
2021/12/21 03:16:16;;;;;;;8.77;7.18;;;9.90;79.70;;;;;;5154919;27;20043;-67
2021/12/21 03:18:43;;;;;;;10.32;7.75;;;9.90;79.70;;;;;;5150940;27;20046;-66
2021/12/21 03:21:08;;;;;;;11.95;8.13;;;9.90;79.70;;;;;;5135879;27;20122;-63
2021/12/21 03:23:34;;;;;;;9.35;7.53;;;10.00;79.80;;;;;;5133513;27;20113;-67
2021/12/21 03:26:00;;;;;;;11.02;8.40;;;9.90;79.70;;;;;;5133734;27;20035;-66
2021/12/21 03:28:26;;;;;;;9.55;7.78;;;9.90;79.70;;;;;;5134721;27;20072;-64
2021/12/21 03:30:51;;;;;;;10.40;8.40;;;9.90;79.70;;;;;;5133980;27;20118;-68
2021/12/21 03:33:17;;;;;;;9.30;7.75;;;9.90;79.70;;;;;;5132661;27;20376;-68
2021/12/21 03:35:43;;;;;;;10.75;8.18;;;9.90;79.70;;;;;;5133849;27;20047;-66
2021/12/21 03:38:09;;;;;;;11.52;8.23;;;9.90;79.70;;;;;;5133401;27;20066;-68
2021/12/21 03:40:35;;;;;;;11.88;8.32;;;9.90;79.70;;;;;;5134949;27;20096;-69
2021/12/21 03:43:01;;;;;;;8.95;7.53;;;9.90;79.70;;;;;;5133533;27;20120;-66
2021/12/21 03:45:31;;;;;;;10.15;8.45;;;9.90;79.70;;;;;;5133799;27;20075;-68
2021/12/21 03:47:57;;;;;;;10.27;7.72;;;10.00;79.80;;;;;;5133557;27;20043;-68
2021/12/21 03:50:23;;;;;;;11.10;8.10;;;9.90;79.70;;;;;;5134784;27;20039;-68
2021/12/21 03:52:49;;;;;;;8.50;7.45;;;9.90;79.70;;;;;;5133511;27;20120;-66
2021/12/21 03:55:15;;;;;;;10.80;7.80;;;10.00;79.70;;;;;;5132778;27;20491;-67
2021/12/21 03:57:41;;;;;;;9.50;7.30;;;10.00;79.70;;;;;;5133210;27;20088;-67
2021/12/21 04:00:11;;;;;;;11.70;8.30;;;9.90;79.70;;;;;;5134493;27;20039;-67
2021/12/21 04:02:37;;;;;;;10.48;8.38;;;9.90;79.70;;;;;;5138155;27;20050;-69
2021/12/21 04:05:04;;;;;;;9.30;7.30;;;9.80;79.70;;;;;;5154421;27;20046;-66
2021/12/21 04:07:29;;;;;;;11.43;8.18;;;9.90;79.70;;;;;;5134984;27;20452;-67
2021/12/21 04:09:55;;;;;;;10.25;8.05;;;9.90;80.30;;;;;;5153432;27;20039;-66
2021/12/21 04:12:21;;;;;;;9.50;8.18;;;9.80;79.60;;;;;;5154697;27;20058;-68
2021/12/21 04:14:47;;;;;;;9.85;7.53;;;9.90;79.70;;;;;;5153804;27;20042;-67
2021/12/21 04:17:18;;;;;;;9.88;7.43;;;9.90;79.70;;;;;;5135202;27;20126;-67
2021/12/21 04:19:45;;;;;;;12.35;7.90;;;9.90;79.60;;;;;;5153763;27;20482;-69
2021/12/21 04:22:10;;;;;;;9.75;7.65;;;9.90;79.70;;;;;;5154986;27;20099;-68
2021/12/21 04:24:36;;;;;;;12.00;8.05;;;9.90;79.70;;;;;;5153499;27;20454;-67
2021/12/21 04:27:02;;;;;;;9.43;7.38;;;9.90;79.70;;;;;;5153090;27;20038;-69
2021/12/21 04:29:28;;;;;;;10.57;7.65;;;9.90;79.70;;;;;;5154481;27;20142;-68
2021/12/21 04:31:54;;;;;;;11.05;8.25;;;9.80;79.60;;;;;;5159173;27;20034;-68
2021/12/21 04:34:19;;;;;;;11.00;8.40;;;9.90;79.70;;;;;;5158113;27;20039;-67
2021/12/21 04:36:46;;;;;;;10.25;7.85;;;9.80;79.60;;;;;;5158092;27;20091;-68
2021/12/21 04:39:24;;;;;;;11.32;8.05;;;9.80;79.60;;;;;;5157632;27;20058;-68
2021/12/21 04:41:50;;;;;;;9.20;8.10;;;9.80;79.60;;;;;;5157345;27;20046;-68
2021/12/21 04:44:16;;;;;;;10.65;8.40;;;9.80;80.30;;;;;;5158604;27;20117;-67
2021/12/21 04:46:41;;;;;;;9.73;7.47;;;9.80;79.60;;;;;;5157775;27;20192;-69
2021/12/21 04:49:07;;;;;;;10.25;7.90;;;9.80;79.60;;;;;;5157541;27;20051;-68
2021/12/21 04:51:33;;;;;;;7.72;6.90;;;9.80;79.70;;;;;;5157730;27;20083;-69
2021/12/21 04:53:59;;;;;;;9.13;7.78;;;9.80;79.60;;;;;;5158580;27;20038;-69
2021/12/21 04:56:24;;;;;;;9.65;7.75;;;9.80;80.30;;;;;;5138801;27;20118;-68
2021/12/21 04:58:50;;;;;;;10.23;7.28;;;9.80;79.60;;;;;;5156959;27;20039;-67
2021/12/21 05:01:16;;;;;;;10.55;7.45;;;9.80;79.60;;;;;;5157031;27;20043;-68
2021/12/21 05:03:41;;;;;;;10.77;7.40;;;9.80;79.60;;;;;;5157513;27;20069;-68
2021/12/21 05:06:07;;;;;;;9.32;7.25;;;9.90;79.70;;;;;;5157852;27;20054;-68
2021/12/21 05:08:37;;;;;;;8.93;7.45;;;9.80;79.60;;;;;;5138095;27;20075;-68
2021/12/21 05:11:05;;;;;;;11.38;7.60;;;9.80;79.60;;;;;;5138394;27;20049;-69
2021/12/21 05:13:37;;;;;;;10.32;8.00;;;9.80;79.60;;;;;;5138129;27;20074;-68
2021/12/21 05:16:03;;;;;;;9.13;7.18;;;9.80;79.60;;;;;;5157896;27;20049;-68
2021/12/21 05:18:29;;;;;;;8.55;7.43;;;9.80;79.70;;;;;;5138362;27;20157;-68
2021/12/21 05:20:55;;;;;;;10.68;7.22;;;9.80;79.60;;;;;;5157151;27;20046;-69
2021/12/21 05:23:21;;;;;;;9.13;7.88;;;9.80;79.60;;;;;;5156951;27;20066;-68
2021/12/21 05:25:48;;;;;;;9.43;7.18;;;9.80;79.60;;;;;;5158004;27;20107;-65
2021/12/21 05:28:15;;;;;;;8.73;7.22;;;9.80;79.60;;;;;;5156941;27;20478;-68
2021/12/21 05:30:41;;;;;;;8.00;7.20;;;9.90;79.60;;;;;;5156228;27;20050;-68
2021/12/21 05:33:08;;;;;;;9.05;7.30;;;9.80;79.60;;;;;;5157062;27;20043;-68
2021/12/21 05:35:34;;;;;;;8.32;6.57;;;9.80;79.60;;;;;;5156617;27;20077;-69
2021/12/21 05:38:04;;;;;;;9.40;6.97;;;9.80;79.60;;;;;;5176287;27;20042;-68
2021/12/21 05:40:43;;;;;;;8.75;7.18;;;9.80;79.60;;;;;;5177300;27;20049;-68
2021/12/21 05:43:10;;;;;;;8.88;6.97;;;9.80;79.60;;;;;;5177665;27;20049;-67
2021/12/21 05:45:37;;;;;;;8.23;6.85;;;9.80;79.60;;;;;;5176978;27;20119;-66
2021/12/21 05:48:03;;;;;;;8.43;6.90;;;9.80;79.60;;;;;;5175300;27;20367;-68
2021/12/21 05:50:29;;;;;;;9.60;7.13;;;9.70;79.50;;;;;;5177556;27;20046;-68
2021/12/21 05:52:55;;;;;;;9.90;6.90;;;9.80;79.60;;;;;;5177510;27;20045;-68
2021/12/21 05:55:21;;;;;;;7.63;6.82;;;9.70;79.50;;;;;;5177452;27;20155;-69
2021/12/21 05:57:49;;;;;;;8.50;7.57;;;9.80;79.60;;;;;;5175260;27;20073;-68
2021/12/21 06:00:18;;;;;;;7.80;6.15;;;9.70;79.50;;;;;;5177151;27;20041;-67
2021/12/21 06:02:44;;;;;;;8.93;7.20;;;9.70;79.60;;;;;;5176224;27;20108;-69
2021/12/21 06:05:10;;;;;;;9.35;6.72;;;9.70;79.50;;;;;;5177255;27;20052;-68
2021/12/21 06:07:36;;;;;;;7.68;6.55;;;9.70;79.60;;;;;;5157697;27;20389;-68
2021/12/21 06:10:11;;;;;;;9.13;6.68;;;9.70;79.60;;;;;;5176204;27;20042;-68
2021/12/21 06:26:00;;;;;;;8.52;6.97;;;9.70;79.60;;;;;;5176814;27;20042;-68
2021/12/21 06:28:26;;;;;;;8.85;7.03;;;9.70;79.60;;;;;;5176945;27;20047;-68
2021/12/21 06:30:51;;;;;;;9.13;6.68;;;9.80;79.70;;;;;;5155958;27;20046;-68
2021/12/21 06:33:17;;;;;;;7.95;6.65;;;9.70;79.60;;;;;;5157635;27;20228;-66
2021/12/21 06:35:44;;;;;;;7.35;6.50;;;9.70;79.60;;;;;;5176081;27;20097;-68
2021/12/21 06:38:10;;;;;;;9.35;6.75;;;9.70;79.50;;;;;;5176589;27;20046;-67
2021/12/21 06:40:36;;;;;;;8.75;7.00;;;9.70;79.60;;;;;;5174617;27;20102;-67
2021/12/21 06:43:10;;;;;;;8.55;6.63;;;9.70;79.60;;;;;;5176647;27;20034;-68
2021/12/21 06:53:38;;;;;;;8.38;6.75;;;9.70;80.20;;;;;;5175458;27;20137;-66
2021/12/21 06:56:05;;;;;;;8.18;5.90;;;9.70;79.60;;;;;;5175997;27;20030;-66
2021/12/21 06:58:32;;;;;;;7.57;6.18;;;9.70;79.60;;;;;;5149307;27;20454;-63
2021/12/21 07:00:58;;;;;;;7.82;6.47;;;9.70;79.60;;;;;;5136309;27;20387;-63
2021/12/21 07:03:25;;;;;;;6.55;5.72;;;9.70;79.60;;;;;;5162139;27;20110;-68
2021/12/21 07:05:51;;;;;;;8.18;6.72;;;9.70;79.60;;;;;;5156071;27;20045;-64
2021/12/21 07:08:22;;;;;;;7.88;5.93;;;9.70;79.60;;;;;;5174603;27;20076;-64
2021/12/21 07:10:56;;;;;;;8.68;6.50;;;9.70;79.60;;;;;;5175706;27;20042;-62
2021/12/21 07:18:51;;;;;;;8.00;6.57;;;9.60;79.60;;;;;;5156214;27;20045;-67
2021/12/21 07:21:17;;;;;;;7.03;5.75;;;9.60;79.50;;;;;;5161567;27;20046;-66
2021/12/21 07:23:43;;;;;;;8.25;5.68;;;9.60;79.50;;;;;;5157091;27;20078;-66
2021/12/21 07:26:11;;;;;;;7.13;6.13;;;9.60;79.50;;;;;;5173110;27;20524;-64
2021/12/21 07:28:37;;;;;;;7.70;6.47;;;9.60;79.50;;;;;;5165063;27;20042;-67
2021/12/21 07:31:03;;;;;;;6.85;5.97;;;9.60;79.50;;;;;;5138246;27;20142;-68
2021/12/21 07:33:28;;;;;;;7.43;5.80;;;9.60;79.50;;;;;;5154429;27;20078;-63
2021/12/21 07:35:54;;;;;;;7.93;6.53;;;9.60;79.50;;;;;;5155097;27;20039;-66
2021/12/21 07:38:22;;;;;;;7.88;5.88;;;9.60;79.50;;;;;;5154623;27;20049;-65
2021/12/21 07:40:48;;;;;;;7.70;5.88;;;9.60;79.50;;;;;;5153548;27;20043;-60
2021/12/21 07:43:16;;;;;;;7.53;6.40;;;9.70;79.50;;;;;;5166528;27;20054;-66
2021/12/21 07:45:41;;;;;;;6.97;5.55;;;9.60;79.50;;;;;;5154210;27;20071;-67
2021/12/21 07:48:08;;;;;;;7.63;6.10;;;9.60;79.50;;;;;;5155974;27;20153;-66
2021/12/21 07:50:34;;;;;;;7.55;5.90;;;9.60;79.50;;;;;;5167154;27;20049;-66
2021/12/21 07:53:01;;;;;;;7.85;5.80;;;9.60;79.50;;;;;;5154654;27;20035;-68
2021/12/21 07:55:28;;;;;;;8.23;6.07;;;9.60;79.50;;;;;;5135071;27;20050;-66
2021/12/21 07:57:54;;;;;;;7.07;5.90;;;9.60;79.50;;;;;;5136162;27;20518;-65
2021/12/21 08:00:21;;;;;;;6.13;5.53;;;9.60;79.50;;;;;;5155661;27;20043;-62
2021/12/21 08:02:47;;;;;;;8.32;5.93;;;9.60;79.50;;;;;;5172443;27;20042;-68
2021/12/21 08:05:14;;;;;;;6.25;5.53;;;9.60;79.50;;;;;;5164004;27;20061;-67
2021/12/21 08:07:51;;;;;;;7.13;5.85;;;9.60;79.50;;;;;;5171765;27;20081;-68
2021/12/21 08:10:30;;;;;;;7.65;6.10;;;9.60;79.50;;;;;;5173207;27;20038;-68
2021/12/21 08:12:56;;;;;;;10.50;6.10;;;9.60;79.40;;;;;;5175156;27;20493;-67
2021/12/21 08:15:24;;;;;;;6.20;5.50;;;9.60;79.50;;;;;;5173597;27;20194;-65
2021/12/21 08:17:50;;;;;;;7.47;5.18;;;9.60;79.50;;;;;;5174771;27;20062;-64
2021/12/21 08:20:16;;;;;;;7.30;5.93;;;9.60;79.40;;;;;;5173417;27;20053;-67
2021/12/21 08:22:41;;;;;;;6.53;5.80;;;9.60;79.50;;;;;;5174609;27;20117;-68
2021/12/21 08:25:08;;;;;;;7.28;5.72;;;9.50;79.40;;;;;;5166547;27;20089;-67
2021/12/21 08:27:34;;;;;;;7.47;5.88;;;9.60;79.40;;;;;;5162077;27;20058;-67
2021/12/21 08:29:59;;;;;;;6.68;5.90;;;9.60;79.40;;;;;;5155228;27;20062;-64
2021/12/21 08:32:25;;;;;;;6.95;5.28;;;9.60;79.40;;;;;;5163999;27;20035;-65
2021/12/21 08:34:50;;;;;;;6.20;5.60;;;9.50;79.40;;;;;;5155472;27;20459;-65
2021/12/21 08:37:17;;;;;;;6.70;5.93;;;9.50;79.40;;;;;;5162888;27;20147;-64
2021/12/21 08:39:42;;;;;;;6.35;5.45;;;9.60;79.40;;;;;;5160667;27;20043;-64
2021/12/21 08:42:15;;;;;;;7.20;5.97;;;9.50;79.40;;;;;;5167941;27;20042;-68
2021/12/21 08:44:45;;;;;;;6.57;5.07;;;9.50;79.40;;;;;;5175008;27;20490;-67
2021/12/21 08:47:11;;;;;;;6.28;5.25;;;9.50;79.40;;;;;;5174042;27;20430;-67
2021/12/21 08:49:37;;;;;;;6.18;5.38;;;9.50;79.40;;;;;;5173242;27;20034;-66
2021/12/21 08:52:03;;;;;;;6.82;5.60;;;9.50;79.40;;;;;;5174602;27;20039;-61
2021/12/21 08:54:29;;;;;;;5.97;5.38;;;9.50;79.40;;;;;;5174476;27;20240;-69
2021/12/21 08:56:55;;;;;;;6.32;5.53;;;9.50;79.40;;;;;;5172786;27;20077;-68
2021/12/21 08:59:20;;;;;;;6.28;5.38;;;9.50;79.40;;;;;;5172649;27;20327;-70
2021/12/21 09:01:47;;;;;;;6.90;5.53;;;9.60;79.50;;;;;;5136563;27;20047;-70
2021/12/21 09:04:15;;;;;;;6.68;5.38;;;9.50;79.40;;;;;;5153374;27;20047;-66
2021/12/21 09:06:41;;;;;;;6.22;5.30;;;9.50;79.40;;;;;;5157426;27;20047;-69
2021/12/21 09:09:08;;;;;;;7.15;5.78;;;9.50;79.40;;;;;;5154906;27;20042;-63
2021/12/21 09:11:35;;;;;;;6.90;5.95;;;9.50;79.40;;;;;;5153750;27;20046;-70
2021/12/21 09:14:00;;;;;;;6.38;5.50;;;9.50;79.40;;;;;;5134803;27;20047;-70
2021/12/21 09:16:26;;;;;;;7.55;5.40;;;9.50;79.40;;;;;;5155092;27;20047;-66
2021/12/21 09:18:52;;;;;;;7.10;5.90;;;9.50;79.40;;;;;;5156906;27;20037;-62
2021/12/21 09:21:17;;;;;;;7.28;5.82;;;9.60;79.50;;;;;;5161803;27;20034;-67
2021/12/21 09:23:43;;;;;;;7.07;5.93;;;9.50;79.40;;;;;;5171880;27;20035;-69
2021/12/21 09:26:09;;;;;;;6.55;5.22;;;9.50;79.40;;;;;;5169663;27;20053;-62
2021/12/21 09:28:35;;;;;;;7.22;5.47;;;9.50;79.40;;;;;;5135132;27;20049;-69
2021/12/21 09:31:00;;;;;;;7.32;5.32;;;9.50;79.50;;;;;;5153351;27;20039;-66
2021/12/21 09:33:26;;;;;;;6.25;5.57;;;9.50;79.40;;;;;;5166066;27;20086;-69
2021/12/21 09:35:52;;;;;;;8.00;5.40;;;9.50;79.50;;;;;;5161936;27;20145;-68
2021/12/21 09:38:19;;;;;;;6.55;5.38;;;9.50;80.10;;;;;;5153845;27;20753;-68
2021/12/21 09:40:45;;;;;;;5.80;5.00;;;9.50;79.40;;;;;;5152706;27;20163;-64
2021/12/21 09:43:11;;;;;;;6.80;5.45;;;9.50;79.40;;;;;;5153955;27;20125;-68
2021/12/21 09:45:38;;;;;;;7.10;5.72;;;9.60;79.50;;;;;;5152382;27;20114;-65
2021/12/21 09:48:05;;;;;;;7.18;5.28;;;9.50;79.40;;;;;;5136826;27;20046;-69
2021/12/21 09:50:32;;;;;;;6.70;5.40;;;9.50;79.50;;;;;;5173069;27;20053;-66
2021/12/21 09:52:58;;;;;;;6.18;5.40;;;9.40;79.40;;;;;;5154664;27;20060;-67
2021/12/21 09:55:24;;;;;;;6.50;5.20;;;9.50;79.50;;;;;;5170941;27;20122;-64
2021/12/21 09:57:51;;;;;;;6.70;5.32;;;9.50;79.50;;;;;;5172388;27;20086;-66
2021/12/21 10:00:28;;;;;;;6.35;5.25;;;9.50;79.50;;;;;;5172605;27;20129;-68
2021/12/21 10:03:02;;;;;;;5.90;4.82;;;9.50;79.40;;;;;;5170334;27;20531;-66
2021/12/21 10:05:29;;;;;;;6.22;5.07;;;9.50;79.40;;;;;;5152850;27;20403;-62
2021/12/21 10:08:05;;;;;;;6.15;5.55;;;9.50;79.40;;;;;;5151971;27;20089;-68
2021/12/21 10:10:35;;;;;;;;;;;9.50;79.40;;;;;;5152485;27;20082;-66
2021/12/21 10:13:27;;;;;;;5.85;5.20;;;9.40;79.30;;;;;;5152216;27;20377;-66
2021/12/21 10:16:05;;;;;;;7.35;5.70;;;9.50;79.50;;;;;;5152228;27;20461;-67
2021/12/21 10:18:33;;;;;;;5.97;5.28;;;9.40;79.50;;;;;;5151183;27;20043;-66
2021/12/21 10:21:02;;;;;;;6.28;4.75;;;9.40;80.10;;;;;;5138341;27;20141;-68
2021/12/21 10:23:33;;;;;;;5.55;4.95;;;9.50;79.60;;;;;;5172899;27;20045;-67
2021/12/21 10:26:10;;;;;;;5.80;5.20;;;9.50;79.50;;;;;;5164381;27;20086;-68
2021/12/21 10:28:46;;;;;;;7.18;5.32;;;9.40;79.50;;;;;;5163562;27;20042;-65
2021/12/21 10:31:28;;;;;;;7.90;5.53;;;9.50;79.50;;;;;;5161744;27;20432;-67
2021/12/21 10:33:56;;;;;;;6.93;5.65;;;9.40;79.50;;;;;;5158825;27;20080;-69
2021/12/21 10:36:25;;;;;;;5.25;4.72;;;9.40;79.50;;;;;;5172441;27;20077;-69
2021/12/21 10:38:57;;;;;;;6.97;4.93;;;9.40;79.50;;;;;;5176079;27;20049;-65
2021/12/21 10:41:28;;;;;;;5.50;4.90;;;9.40;79.50;;;;;;5175971;27;20043;-68
2021/12/21 10:44:01;;;;;;;4.93;4.50;;;9.40;79.50;;;;;;5173874;27;20038;-63
2021/12/21 10:46:33;;;;;;;6.95;5.20;;;9.40;79.50;;;;;;5160767;27;20035;-60
2021/12/21 10:49:12;;;;;;;5.60;5.07;;;9.40;79.50;;;;;;5151542;27;20511;-59
2021/12/21 10:51:53;;;;;;;5.93;5.03;;;9.50;79.60;;;;;;5136475;27;20053;-59
2021/12/21 10:54:31;;;;;;;6.57;5.43;;;9.40;79.50;;;;;;5155798;27;20494;-61
2021/12/21 10:57:21;;;;;;;5.70;5.03;;;9.50;79.60;;;;;;5156049;27;20045;-60
2021/12/21 10:59:50;;;;;;;6.03;5.05;;;9.40;79.50;;;;;;5145433;27;20046;-60
2021/12/21 11:02:28;;;;;;;5.68;5.07;;;9.40;79.50;;;;;;5175676;27;20446;-62
2021/12/21 11:05:00;;;;;;;4.70;4.20;;;9.40;79.50;;;;;;5158235;27;20130;-60
2021/12/21 11:07:42;;;;;;;6.63;5.15;;;9.40;79.50;;;;;;5170519;27;20404;-60
2021/12/21 11:10:20;;;;;;;5.60;4.65;;;9.40;79.50;;;;;;5174794;27;20445;-61
2021/12/21 11:12:51;;;;;;;6.72;4.95;;;9.40;79.50;;;;;;5171754;27;20044;-63
2021/12/21 11:15:33;;;;;;;5.82;4.57;;;9.40;79.50;;;;;;5171604;27;20043;-63
2021/12/21 11:18:03;;;;;;;6.97;5.28;;;9.40;79.50;;;;;;5162446;27;20390;-63
2021/12/21 11:20:28;;;;;;;6.80;5.03;;;9.40;79.50;;;;;;5163364;27;20568;-60
2021/12/21 11:22:55;;;;;;;5.82;4.55;;;9.40;79.50;;;;;;5146646;27;20038;-61
2021/12/21 11:25:22;;;;;;;7.30;4.95;;;9.40;79.50;;;;;;5143599;27;20049;-64
2021/12/21 11:27:49;;;;;;;6.43;4.90;;;9.40;79.60;;;;;;5171030;27;20035;-61
2021/12/21 11:30:24;;;;;;;5.68;4.78;;;9.40;79.50;;;;;;5154896;27;20105;-62
2021/12/21 11:32:52;;;;;;;6.22;5.00;;;9.40;79.50;;;;;;5154683;27;20056;-63
2021/12/21 11:37:59;;;;;;;5.75;4.82;;;9.50;79.60;;;;;;5153873;27;20129;-62
2021/12/21 11:40:30;;;;;;;7.28;5.20;;;9.40;79.50;;;;;;5135010;27;20043;-63
2021/12/21 11:43:17;;;;;;;6.35;5.00;;;9.40;79.50;;;;;;5154286;27;20122;-62
2021/12/21 11:45:51;;;;;;;5.43;4.50;;;9.40;79.50;;;;;;5154342;27;20046;-60
2021/12/21 11:48:55;;;;;;;4.90;4.40;;;9.40;79.60;;;;;;5154544;27;20047;-67
2021/12/21 11:51:25;;;;;;;5.75;4.53;;;9.40;79.90;;;;;;5050096;28;20068;-63
2021/12/21 11:53:52;;;;;;;5.38;4.72;;;9.40;79.50;;;;;;5032516;28;20060;-65
2021/12/21 11:56:21;;;;;;;5.32;4.07;;;9.40;79.50;;;;;;5038009;28;20070;-63
2021/12/21 11:58:51;;;;;;;6.00;4.72;;;9.40;79.50;;;;;;5051463;28;20603;-63
2021/12/21 12:01:23;;;;;;;5.22;4.35;;;9.40;79.50;;;;;;5049379;28;20045;-65
2021/12/21 12:04:17;;;;;;;4.78;4.30;;;9.40;79.50;;;;;;5068057;28;20060;-60
2021/12/21 12:06:53;;;;;;;4.68;4.13;;;9.40;79.40;;;;;;5028994;28;20053;-68
2021/12/21 12:09:27;;;;;;;4.97;4.40;;;9.40;79.50;;;;;;5028533;28;20419;-66
2021/12/21 12:12:08;;;;;;;5.20;4.30;;;9.40;79.50;;;;;;5029306;28;20128;-68
2021/12/21 12:14:36;;;;;;;5.32;4.60;;;9.50;79.50;;;;;;5028873;28;20112;-62
2021/12/21 12:17:10;;;;;;;4.57;4.18;;;9.40;79.50;;;;;;5037610;28;20221;-65
2021/12/21 12:19:43;;;;;;;4.70;4.25;;;9.40;79.40;;;;;;5048709;28;20087;-66
2021/12/21 12:22:15;;;;;;;4.60;3.90;;;9.40;79.50;;;;;;5031459;28;20104;-63
2021/12/21 12:24:47;;;;;;;4.57;3.97;;;9.40;79.50;;;;;;5020849;28;20064;-68
2021/12/21 12:27:21;;;;;;;5.03;4.07;;;9.50;79.50;;;;;;5066013;28;20071;-68
2021/12/21 12:29:49;;;;;;;6.05;4.50;;;9.50;79.50;;;;;;5111474;28;20511;-66
2021/12/21 12:32:17;;;;;;;5.32;3.75;;;9.40;79.50;;;;;;5110441;28;20085;-68
2021/12/21 12:34:43;;;;;;;4.38;3.72;;;9.40;79.50;;;;;;5096132;28;20035;-65
2021/12/21 12:37:19;;;;;;;7.20;4.70;;;9.40;79.40;;;;;;5128885;28;20047;-64
2021/12/21 12:39:50;;;;;;;7.28;4.85;;;9.30;76.20;;;;;;5128578;28;20424;-64
2021/12/21 12:42:22;;;;;;;7.28;5.35;;;9.20;77.10;;;;;;5130731;27;20043;-65
2021/12/21 12:44:50;;;;;;;9.70;5.20;;;9.10;77.20;;;;;;5153950;27;20042;-64
2021/12/21 12:47:17;;;;;;;7.65;4.85;;;9.10;77.30;;;;;;5155041;27;20114;-65
2021/12/21 12:49:52;;;;;;;7.53;4.78;;;9.10;77.50;;;;;;5153573;27;20144;-63
2021/12/21 12:52:28;;;;;;;9.63;5.13;;;9.10;77.70;;;;;;5158047;27;20039;-64
2021/12/21 12:55:13;;;;;;;7.10;4.43;;;9.20;77.80;;;;;;5157997;27;20052;-61
2021/12/21 12:57:48;;;;;;;7.40;5.10;;;9.10;77.80;;;;;;5158705;27;20043;-62
2021/12/21 13:00:17;;;;;;;6.95;4.65;;;9.20;78.00;;;;;;5173303;27;20042;-61
2021/12/21 13:03:04;;;;;;;6.20;4.82;;;9.20;78.10;;;;;;5177003;27;20049;-65
2021/12/21 13:05:39;;;;;;;7.20;4.82;;;9.20;78.10;;;;;;5142512;27;20046;-59
2021/12/21 13:08:14;;;;;;;8.02;4.40;;;9.20;78.10;;;;;;5158985;27;20039;-58
2021/12/21 13:10:42;;;;;;;7.03;5.07;;;9.20;78.20;;;;;;5139154;27;20038;-60
2021/12/21 13:13:08;;;;;;;6.63;4.00;;;9.20;78.20;;;;;;5172036;27;20038;-58
2021/12/21 13:15:44;;;;;;;5.88;4.30;;;9.20;78.30;;;;;;5178018;27;20042;-59
2021/12/21 13:18:13;;;;;;;7.78;4.57;;;9.30;78.30;;;;;;5175926;27;20043;-65
2021/12/21 13:20:41;;;;;;;7.57;4.93;;;9.30;78.40;;;;;;5177955;27;20042;-59
2021/12/21 13:23:18;;;;;;;5.03;4.15;;;9.30;78.40;;;;;;5178087;27;20078;-60
2021/12/21 13:26:07;;;;;;;6.78;4.40;;;9.30;78.40;;;;;;5175788;27;20084;-60
2021/12/21 13:28:50;;;;;;;7.32;4.75;;;9.30;78.40;;;;;;5170545;27;20048;-61
2021/12/21 13:31:18;;;;;;;5.18;4.35;;;9.30;78.50;;;;;;5175339;27;20367;-59
2021/12/21 13:33:49;;;;;;;5.05;4.25;;;9.30;78.50;;;;;;5174705;27;20056;-58
2021/12/21 13:36:15;;;;;;;7.70;4.68;;;9.30;78.50;;;;;;5157575;27;20056;-58
2021/12/21 13:38:41;;;;;;;5.93;4.28;;;9.30;78.50;;;;;;5157512;27;20042;-61
2021/12/21 13:41:11;;;;;;;7.72;4.40;;;9.30;78.50;;;;;;5158299;27;20470;-61
2021/12/21 13:43:39;;;;;;;5.07;4.30;;;9.30;78.50;;;;;;5166433;27;20043;-60
2021/12/21 13:46:09;;;;;;;5.03;4.05;;;9.30;78.50;;;;;;5177326;27;20394;-59
2021/12/21 13:48:36;;;;;;;6.40;4.10;;;9.30;78.50;;;;;;5167350;27;20054;-58
2021/12/21 13:51:14;;;;;;;8.80;4.70;;;9.30;78.50;;;;;;5157761;27;20043;-59
2021/12/21 13:53:54;;;;;;;6.07;4.30;;;9.30;79.20;;;;;;5156439;27;20042;-62
2021/12/21 13:56:22;;;;;;;6.28;4.55;;;9.30;78.60;;;;;;5157968;27;20058;-60
2021/12/21 13:58:54;;;;;;;5.45;4.00;;;9.30;78.60;;;;;;5157789;27;20398;-63
2021/12/21 14:01:26;;;;;;;5.88;3.70;;;9.30;78.60;;;;;;5156682;27;20413;-63
2021/12/21 14:03:57;;;;;;;5.50;4.32;;;9.30;78.60;;;;;;5157536;27;20402;-65
2021/12/21 14:06:24;;;;;;;5.53;4.00;;;9.30;79.30;;;;;;5175379;27;20049;-65
2021/12/21 14:08:59;;;;;;;5.30;4.07;;;9.30;78.60;;;;;;5174678;27;20073;-65
2021/12/21 14:11:30;;;;;;;4.93;3.83;;;9.30;78.60;;;;;;5157876;27;20362;-65
2021/12/21 14:13:56;;;;;;;4.38;3.78;;;9.30;78.60;;;;;;5142766;27;20034;-65
2021/12/21 14:16:26;;;;;;;6.63;3.90;;;9.40;78.70;;;;;;5176553;27;20049;-65
2021/12/21 14:18:57;;;;;;;4.60;3.75;;;9.30;78.60;;;;;;5177065;27;20034;-65